Time;durP1;ratioP1;P1;durP2;ratioP2;P2;SDS_P1;SDS_P2;PMS_P1;PMS_P2;Temp;Humidity;BMP_temperature;BMP_pressure;BME280_temperature;BME280_humidity;BME280_pressure;Samples;Min_cycle;Max_cycle;Signal;HPM_P1;HPM_P2
2021/12/11 00:00:52;;;;;;;26.33;12.82;;;;;;;;;;5097496;28;20035;-83
2021/12/11 00:03:29;;;;;;;15.88;9.57;;;;;;;;;;5097626;28;20051;-84
2021/12/11 00:05:58;;;;;;;15.48;9.35;;;;;;;;;;5097685;28;20496;-84
2021/12/11 00:08:26;;;;;;;18.85;9.13;;;;;;;;;;5114705;28;20050;-84
2021/12/11 00:10:58;;;;;;;13.45;9.45;;;;;;;;;;5097471;28;20050;-84
2021/12/11 00:13:26;;;;;;;19.83;10.85;;;;;;;;;;5114272;28;20044;-84
2021/12/11 00:15:52;;;;;;;19.10;10.43;;;;;;;;;;5097508;28;20484;-84
2021/12/11 00:18:21;;;;;;;18.55;10.40;;;;;;;;;;5114024;28;20048;-84
2021/12/11 00:20:53;;;;;;;20.77;11.35;;;;;;;;;;5097300;28;20059;-84
2021/12/11 00:23:24;;;;;;;19.55;11.15;;;;;;;;;;5097772;28;20093;-84
2021/12/11 00:25:50;;;;;;;17.60;10.98;;;;;;;;;;5097414;28;20581;-84
2021/12/11 00:28:16;;;;;;;17.08;10.98;;;;;;;;;;5097046;28;20039;-83
2021/12/11 00:30:44;;;;;;;14.80;10.38;;;;;;;;;;5096687;28;20131;-84
2021/12/11 00:33:17;;;;;;;19.40;12.18;;;;;;;;;;5113742;28;20049;-84
2021/12/11 00:35:43;;;;;;;17.15;11.10;;;;;;;;;;5113800;28;20047;-84
2021/12/11 00:38:16;;;;;;;20.15;11.68;;;;;;;;;;5095879;28;20130;-84
2021/12/11 00:40:43;;;;;;;24.40;12.13;;;;;;;;;;5097796;28;20123;-84
2021/12/11 00:43:15;;;;;;;15.50;10.13;;;;;;;;;;5114980;28;20614;-85
2021/12/11 00:45:41;;;;;;;15.60;10.35;;;;;;;;;;5115664;28;20043;-84
2021/12/11 00:48:12;;;;;;;28.88;12.98;;;;;;;;;;5115287;28;20047;-84
2021/12/11 00:50:40;;;;;;;22.13;13.02;;;;;;;;;;5113885;28;20058;-84
2021/12/11 00:53:09;;;;;;;29.58;14.00;;;;;;;;;;5114973;28;20057;-84
2021/12/11 00:55:38;;;;;;;23.58;15.07;;;;;;;;;;5156424;27;20053;-84
2021/12/11 00:58:15;;;;;;;24.90;15.00;;;;;;;;;;5155867;27;20045;-84
2021/12/11 01:00:43;;;;;;;25.23;14.50;;;;;;;;;;5155397;27;20091;-84
2021/12/11 01:03:10;;;;;;;24.35;13.52;;;;;;;;;;5137109;27;20107;-84
2021/12/11 01:05:40;;;;;;;21.08;13.13;;;;;;;;;;5120155;27;20050;-84
2021/12/11 01:08:17;;;;;;;22.52;12.50;;;;;;;;;;5120297;27;20043;-84
2021/12/11 01:10:43;;;;;;;23.83;12.57;;;;;;;;;;5120490;27;20126;-84
2021/12/11 01:13:13;;;;;;;25.23;12.55;;;;;;;;;;5137256;27;20518;-84
2021/12/11 01:15:44;;;;;;;21.27;11.80;;;;;;;;;;5120927;27;20046;-83
2021/12/11 01:20:54;;;;;;;22.15;12.57;;;;;;;;;;5138896;27;20058;-83
2021/12/11 01:24:08;;;;;;;21.42;12.02;;;;;;;;;;5138015;27;20043;-83
2021/12/11 01:26:15;;;;;;;18.90;10.68;;;;;;;;;;5134702;27;20131;-83
2021/12/11 01:28:41;;;;;;;22.65;11.23;;;;;;;;;;5120883;27;20091;-82
2021/12/11 01:31:08;;;;;;;18.20;11.07;;;;;;;;;;5120235;27;20064;-83
2021/12/11 01:33:35;;;;;;;17.65;10.75;;;;;;;;;;5120068;27;20038;-83
2021/12/11 01:36:04;;;;;;;20.85;12.20;;;;;;;;;;5137151;27;20031;-83
2021/12/11 01:38:31;;;;;;;21.63;13.52;;;;;;;;;;5120043;27;20043;-84
2021/12/11 01:40:59;;;;;;;23.85;12.93;;;;;;;;;;5120808;27;20107;-83
2021/12/11 01:43:27;;;;;;;23.55;12.73;;;;;;;;;;5137935;27;20038;-84
2021/12/11 01:45:54;;;;;;;21.60;12.55;;;;;;;;;;5120771;27;20042;-83
2021/12/11 01:48:27;;;;;;;18.02;11.43;;;;;;;;;;5120266;27;20090;-84
2021/12/11 01:51:03;;;;;;;17.60;10.38;;;;;;;;;;5140630;27;20506;-83
2021/12/11 01:53:34;;;;;;;17.38;10.90;;;;;;;;;;5124168;27;20620;-83
2021/12/11 01:56:09;;;;;;;19.40;12.57;;;;;;;;;;5140983;27;20042;-84
2021/12/11 01:58:41;;;;;;;18.08;10.77;;;;;;;;;;5123507;27;20065;-84
2021/12/11 02:01:10;;;;;;;20.65;12.20;;;;;;;;;;5140067;27;20038;-85
2021/12/11 02:03:36;;;;;;;18.88;12.05;;;;;;;;;;5123565;27;20039;-84
2021/12/11 02:06:03;;;;;;;19.63;11.27;;;;;;;;;;5140540;27;20053;-85
2021/12/11 02:08:32;;;;;;;16.60;9.95;;;;;;;;;;5123834;27;20486;-86
2021/12/11 02:11:06;;;;;;;16.33;10.60;;;;;;;;;;5123394;27;20046;-86
2021/12/11 02:13:41;;;;;;;17.15;10.23;;;;;;;;;;5140464;27;20049;-84
2021/12/11 02:16:13;;;;;;;19.23;10.57;;;;;;;;;;5140230;27;20038;-85
2021/12/11 02:18:44;;;;;;;18.88;10.88;;;;;;;;;;5123022;27;20133;-84
2021/12/11 02:21:30;;;;;;;19.27;11.20;;;;;;;;;;5123505;27;20039;-84
2021/12/11 02:24:02;;;;;;;26.52;12.98;;;;;;;;;;5123306;27;20054;-84
2021/12/11 02:26:29;;;;;;;24.13;13.82;;;;;;;;;;5123131;27;20039;-84
2021/12/11 02:28:59;;;;;;;22.40;13.75;;;;;;;;;;5140733;27;20119;-84
2021/12/11 02:31:29;;;;;;;21.08;13.95;;;;;;;;;;5140536;27;20046;-84
2021/12/11 02:33:57;;;;;;;31.83;18.50;;;;;;;;;;5123100;27;20061;-85
2021/12/11 02:36:29;;;;;;;32.10;16.38;;;;;;;;;;5140333;27;20084;-85
2021/12/11 02:39:08;;;;;;;37.63;19.63;;;;;;;;;;5139583;27;20084;-84
2021/12/11 02:41:40;;;;;;;34.45;17.13;;;;;;;;;;5140240;27;20415;-84
2021/12/11 02:44:13;;;;;;;28.02;15.27;;;;;;;;;;5139947;27;20088;-84
2021/12/11 02:46:42;;;;;;;25.23;14.77;;;;;;;;;;5139380;27;20491;-85
2021/12/11 02:49:08;;;;;;;29.00;15.32;;;;;;;;;;5122874;27;20039;-85
2021/12/11 02:51:45;;;;;;;25.35;13.60;;;;;;;;;;5140345;27;20384;-84
2021/12/11 02:54:16;;;;;;;17.55;11.48;;;;;;;;;;5123017;27;20468;-84
2021/12/11 02:56:46;;;;;;;19.10;9.65;;;;;;;;;;5139784;27;20078;-84
2021/12/11 02:59:15;;;;;;;21.27;12.52;;;;;;;;;;5140065;27;20058;-84
2021/12/11 03:01:43;;;;;;;19.67;12.57;;;;;;;;;;5122547;27;20034;-83
2021/12/11 03:04:35;;;;;;;22.08;13.48;;;;;;;;;;5122619;27;20095;-84
2021/12/11 03:07:03;;;;;;;25.25;15.40;;;;;;;;;;5140892;27;20089;-84
2021/12/11 03:09:31;;;;;;;28.10;15.65;;;;;;;;;;5123955;27;20372;-84
2021/12/11 03:11:58;;;;;;;25.02;14.73;;;;;;;;;;5140154;27;20051;-85
2021/12/11 03:14:25;;;;;;;22.25;14.95;;;;;;;;;;5139581;27;20039;-85
2021/12/11 03:16:52;;;;;;;28.50;15.02;;;;;;;;;;5122362;27;20421;-85
2021/12/11 03:19:25;;;;;;;26.73;16.83;;;;;;;;;;5121818;27;20099;-84
2021/12/11 03:21:52;;;;;;;30.55;16.25;;;;;;;;;;5138658;27;20099;-84
2021/12/11 03:24:19;;;;;;;28.42;17.15;;;;;;;;;;5121801;27;20090;-85
2021/12/11 03:26:47;;;;;;;28.42;15.98;;;;;;;;;;5122363;27;20499;-85
2021/12/11 03:29:13;;;;;;;29.13;16.48;;;;;;;;;;5122271;27;20038;-85
2021/12/11 03:31:39;;;;;;;30.90;16.33;;;;;;;;;;5121470;27;20042;-84
2021/12/11 03:34:09;;;;;;;33.30;16.17;;;;;;;;;;5138547;27;20392;-85
2021/12/11 03:36:36;;;;;;;25.05;15.07;;;;;;;;;;5121357;27;20514;-85
2021/12/11 03:39:06;;;;;;;38.47;17.80;;;;;;;;;;5121122;27;20050;-85
2021/12/11 03:41:32;;;;;;;34.03;17.73;;;;;;;;;;5138377;27;20050;-85
2021/12/11 03:43:59;;;;;;;30.45;16.90;;;;;;;;;;5138637;27;20039;-85
2021/12/11 03:46:25;;;;;;;34.35;16.42;;;;;;;;;;5121769;27;20049;-84
2021/12/11 03:48:56;;;;;;;34.08;18.55;;;;;;;;;;5138916;27;20444;-85
2021/12/11 03:51:24;;;;;;;32.47;18.95;;;;;;;;;;5121195;27;20039;-84
2021/12/11 03:53:51;;;;;;;33.55;18.38;;;;;;;;;;5121784;27;20051;-85
2021/12/11 03:56:18;;;;;;;41.95;17.67;;;;;;;;;;5121671;27;20095;-84
2021/12/11 03:58:49;;;;;;;33.38;18.35;;;;;;;;;;5139121;27;20137;-84
2021/12/11 04:01:19;;;;;;;20.63;14.90;;;;;;;;;;5121737;27;20053;-84
2021/12/11 04:03:47;;;;;;;23.98;13.77;;;;;;;;;;5121433;27;20499;-84
2021/12/11 04:06:15;;;;;;;28.35;14.25;;;;;;;;;;5122624;27;20557;-84
2021/12/11 04:08:42;;;;;;;29.90;15.63;;;;;;;;;;5139238;27;20042;-84
2021/12/11 04:11:13;;;;;;;24.85;13.90;;;;;;;;;;5121917;27;20051;-84
2021/12/11 04:13:40;;;;;;;28.33;15.40;;;;;;;;;;5120259;27;20121;-84
2021/12/11 04:16:08;;;;;;;24.98;14.07;;;;;;;;;;5121448;27;20063;-84
2021/12/11 04:18:34;;;;;;;29.45;14.80;;;;;;;;;;5121441;27;20039;-84
2021/12/11 04:21:00;;;;;;;26.70;15.05;;;;;;;;;;5120449;27;20034;-84
2021/12/11 04:23:26;;;;;;;25.98;14.85;;;;;;;;;;5137273;27;20039;-84
2021/12/11 04:25:54;;;;;;;22.42;13.52;;;;;;;;;;5137455;27;20043;-84
2021/12/11 04:28:21;;;;;;;24.70;14.73;;;;;;;;;;5120654;27;20039;-84
2021/12/11 04:30:49;;;;;;;22.85;13.93;;;;;;;;;;5137243;27;20129;-84
2021/12/11 04:33:15;;;;;;;23.60;14.60;;;;;;;;;;5120425;27;20482;-85
2021/12/11 04:35:43;;;;;;;25.63;14.57;;;;;;;;;;5138217;27;20060;-84
2021/12/11 04:38:10;;;;;;;27.27;14.13;;;;;;;;;;5121036;27;20042;-84
2021/12/11 04:40:41;;;;;;;28.00;15.02;;;;;;;;;;5121371;27;20050;-84
2021/12/11 04:43:15;;;;;;;25.50;13.68;;;;;;;;;;5120149;27;20042;-84
2021/12/11 04:45:47;;;;;;;28.65;15.18;;;;;;;;;;5137296;27;20491;-84
2021/12/11 04:48:29;;;;;;;27.02;14.30;;;;;;;;;;5119850;27;20186;-85
2021/12/11 04:51:02;;;;;;;22.15;13.05;;;;;;;;;;5119923;27;20050;-84
2021/12/11 04:56:17;;;;;;;23.20;13.23;;;;;;;;;;5137222;27;20042;-85
2021/12/11 05:06:37;;;;;;;27.20;15.40;;;;;;;;;;5137451;27;20503;-85
2021/12/11 05:11:57;;;;;;;23.95;13.85;;;;;;;;;;5137616;27;20058;-84
2021/12/11 05:14:24;;;;;;;24.38;13.18;;;;;;;;;;5120886;27;20083;-84
2021/12/11 05:16:51;;;;;;;25.13;14.32;;;;;;;;;;5138967;27;20119;-84
2021/12/11 05:19:17;;;;;;;27.33;16.98;;;;;;;;;;5138778;27;20049;-85
2021/12/11 05:21:44;;;;;;;24.33;14.18;;;;;;;;;;5138524;27;20039;-85
2021/12/11 05:24:10;;;;;;;26.05;14.18;;;;;;;;;;5124993;27;20043;-85
2021/12/11 05:26:37;;;;;;;26.60;14.50;;;;;;;;;;5143373;27;20038;-85
2021/12/11 05:29:04;;;;;;;26.45;14.95;;;;;;;;;;5125965;27;20107;-85
2021/12/11 05:31:30;;;;;;;25.88;14.68;;;;;;;;;;5143042;27;20119;-85
2021/12/11 05:33:56;;;;;;;29.92;15.55;;;;;;;;;;5125555;27;20042;-85
2021/12/11 05:36:23;;;;;;;28.73;15.13;;;;;;;;;;5125310;27;20080;-85
2021/12/11 05:38:49;;;;;;;24.92;14.27;;;;;;;;;;5125071;27;20035;-85
2021/12/11 05:41:17;;;;;;;26.38;13.85;;;;;;;;;;5141911;27;20472;-85
2021/12/11 05:43:44;;;;;;;25.88;14.65;;;;;;;;;;5141317;27;20053;-85
2021/12/11 05:46:13;;;;;;;26.77;13.70;;;;;;;;;;5141590;27;20483;-85
2021/12/11 05:48:39;;;;;;;23.10;14.18;;;;;;;;;;5123901;27;20078;-85
2021/12/11 05:51:06;;;;;;;27.05;16.35;;;;;;;;;;5141161;27;20090;-85
2021/12/11 05:53:34;;;;;;;24.30;14.43;;;;;;;;;;5141589;27;20547;-85
2021/12/11 05:56:04;;;;;;;23.67;14.50;;;;;;;;;;5140898;27;20046;-85
2021/12/11 06:01:17;;;;;;;27.08;14.40;;;;;;;;;;5140522;27;20503;-84
2021/12/11 06:03:44;;;;;;;30.40;16.38;;;;;;;;;;5140572;27;20039;-84
2021/12/11 06:06:10;;;;;;;29.27;16.45;;;;;;;;;;5140821;27;20399;-84
2021/12/11 06:08:36;;;;;;;28.00;15.10;;;;;;;;;;5123271;27;20038;-84
2021/12/11 06:11:03;;;;;;;29.52;15.43;;;;;;;;;;5123645;27;20043;-83
2021/12/11 06:13:30;;;;;;;27.40;15.77;;;;;;;;;;5123955;27;20410;-83
2021/12/11 06:15:57;;;;;;;30.52;16.33;;;;;;;;;;5123724;27;20047;-84
2021/12/11 06:18:24;;;;;;;27.02;15.52;;;;;;;;;;5141175;27;20039;-84
2021/12/11 06:20:50;;;;;;;30.27;18.20;;;;;;;;;;5140981;27;20053;-83
2021/12/11 06:23:17;;;;;;;26.90;14.23;;;;;;;;;;5123929;27;20074;-84
2021/12/11 06:25:43;;;;;;;26.52;15.68;;;;;;;;;;5123625;27;20088;-84
2021/12/11 06:28:09;;;;;;;35.55;18.45;;;;;;;;;;5124579;27;20421;-83
2021/12/11 06:30:37;;;;;;;31.58;17.80;;;;;;;;;;5123291;27;20051;-84
2021/12/11 06:33:06;;;;;;;33.75;17.38;;;;;;;;;;5140522;27;20087;-83
2021/12/11 06:35:36;;;;;;;32.97;18.70;;;;;;;;;;5139104;27;20034;-84
2021/12/11 06:38:04;;;;;;;36.58;18.02;;;;;;;;;;5139534;27;20046;-83
2021/12/11 06:40:30;;;;;;;31.42;17.85;;;;;;;;;;5158179;27;20075;-84
2021/12/11 06:42:56;;;;;;;34.13;18.40;;;;;;;;;;5158069;27;20038;-83
2021/12/11 06:45:23;;;;;;;36.58;19.70;;;;;;;;;;5139660;27;20038;-84
2021/12/11 06:47:49;;;;;;;32.75;17.95;;;;;;;;;;5139361;27;20043;-84
2021/12/11 06:50:16;;;;;;;34.17;19.05;;;;;;;;;;5122224;27;20046;-82
2021/12/11 06:52:42;;;;;;;30.95;18.17;;;;;;;;;;5158174;27;20046;-82
2021/12/11 06:55:09;;;;;;;31.80;18.45;;;;;;;;;;5158279;27;20054;-83
2021/12/11 06:57:35;;;;;;;31.80;18.88;;;;;;;;;;5122399;27;20046;-83
2021/12/11 07:00:01;;;;;;;31.85;18.70;;;;;;;;;;5122904;27;20046;-84
2021/12/11 07:02:27;;;;;;;36.95;19.27;;;;;;;;;;5122507;27;20093;-83
2021/12/11 07:04:55;;;;;;;33.55;19.30;;;;;;;;;;5158472;27;20395;-84
2021/12/11 07:07:24;;;;;;;37.33;18.35;;;;;;;;;;5158314;27;20062;-84
2021/12/11 07:09:51;;;;;;;36.70;21.15;;;;;;;;;;5139488;27;20075;-84
2021/12/11 07:12:17;;;;;;;40.97;19.63;;;;;;;;;;5138616;27;20166;-83
2021/12/11 07:14:43;;;;;;;43.30;21.95;;;;;;;;;;5139064;27;20050;-83
2021/12/11 07:17:09;;;;;;;34.47;19.15;;;;;;;;;;5122346;27;20101;-83
2021/12/11 07:19:35;;;;;;;37.13;20.90;;;;;;;;;;5140338;27;20056;-83
2021/12/11 07:22:01;;;;;;;32.80;20.00;;;;;;;;;;5121878;27;20039;-84
2021/12/11 07:24:32;;;;;;;40.70;20.10;;;;;;;;;;5157807;27;20095;-84
2021/12/11 07:26:59;;;;;;;35.95;20.90;;;;;;;;;;5122084;27;20376;-84
2021/12/11 07:29:25;;;;;;;30.85;18.33;;;;;;;;;;5121717;27;20043;-83
2021/12/11 07:31:53;;;;;;;38.97;20.30;;;;;;;;;;5138341;27;20129;-85
2021/12/11 07:34:19;;;;;;;39.10;18.58;;;;;;;;;;5121470;27;20087;-84
2021/12/11 07:36:46;;;;;;;28.65;18.80;;;;;;;;;;5139184;27;20053;-86
2021/12/11 07:39:13;;;;;;;38.35;20.73;;;;;;;;;;5122685;27;20043;-86
2021/12/11 07:41:39;;;;;;;29.15;17.63;;;;;;;;;;5139574;27;20118;-86
2021/12/11 07:44:06;;;;;;;35.63;21.05;;;;;;;;;;5122248;27;20050;-86
2021/12/11 07:46:32;;;;;;;37.47;20.27;;;;;;;;;;5138555;27;20047;-85
2021/12/11 07:48:59;;;;;;;32.63;19.25;;;;;;;;;;5121652;27;20513;-85
2021/12/11 07:51:28;;;;;;;30.60;18.17;;;;;;;;;;5122480;27;20099;-86
2021/12/11 07:53:54;;;;;;;34.45;18.92;;;;;;;;;;5122047;27;20042;-85
2021/12/11 07:56:21;;;;;;;36.65;20.13;;;;;;;;;;5122312;27;20071;-85
2021/12/11 07:58:48;;;;;;;31.80;19.00;;;;;;;;;;5138990;27;20078;-86
2021/12/11 08:01:15;;;;;;;33.25;19.10;;;;;;;;;;5139158;27;20398;-85
2021/12/11 08:03:41;;;;;;;36.15;20.27;;;;;;;;;;5138239;27;20398;-86
2021/12/11 08:06:08;;;;;;;37.78;20.60;;;;;;;;;;5121180;27;20161;-85
2021/12/11 08:08:35;;;;;;;38.22;20.67;;;;;;;;;;5121043;27;20035;-84
2021/12/11 08:11:03;;;;;;;36.55;20.77;;;;;;;;;;5138855;27;20042;-84
2021/12/11 08:13:29;;;;;;;34.78;19.55;;;;;;;;;;5122021;27;20078;-85
2021/12/11 08:15:56;;;;;;;35.38;20.27;;;;;;;;;;5138894;27;20049;-84
2021/12/11 08:18:24;;;;;;;38.47;21.05;;;;;;;;;;5121734;27;20046;-84
2021/12/11 08:20:50;;;;;;;37.25;20.45;;;;;;;;;;5137914;27;20046;-84
2021/12/11 08:23:17;;;;;;;34.20;19.48;;;;;;;;;;5120827;27;20043;-84
2021/12/11 08:25:44;;;;;;;37.40;19.48;;;;;;;;;;5120734;27;20034;-84
2021/12/11 08:28:12;;;;;;;33.78;21.42;;;;;;;;;;5120504;27;20137;-84
2021/12/11 08:30:39;;;;;;;36.97;20.88;;;;;;;;;;5137564;27;20099;-84
2021/12/11 08:33:07;;;;;;;36.00;20.27;;;;;;;;;;5137471;27;20076;-84
2021/12/11 08:35:34;;;;;;;44.10;21.17;;;;;;;;;;5120460;27;20125;-83
2021/12/11 08:38:01;;;;;;;37.63;21.33;;;;;;;;;;5137560;27;20398;-84
2021/12/11 08:40:29;;;;;;;36.05;21.50;;;;;;;;;;5121400;27;20490;-83
2021/12/11 08:42:56;;;;;;;35.38;21.75;;;;;;;;;;5137644;27;20085;-84
2021/12/11 08:45:26;;;;;;;37.50;21.55;;;;;;;;;;5121274;27;20459;-85
2021/12/11 08:47:56;;;;;;;37.67;20.77;;;;;;;;;;5122762;27;20046;-85
2021/12/11 08:50:23;;;;;;;48.20;23.10;;;;;;;;;;5122310;27;20050;-84
2021/12/11 08:52:51;;;;;;;37.13;20.50;;;;;;;;;;5137791;27;20047;-83
2021/12/11 08:55:20;;;;;;;41.83;23.42;;;;;;;;;;5137245;27;20112;-84
2021/12/11 08:57:46;;;;;;;35.97;21.77;;;;;;;;;;5137189;27;20188;-84
2021/12/11 09:00:16;;;;;;;40.17;22.83;;;;;;;;;;5120654;27;20468;-84
2021/12/11 09:02:47;;;;;;;42.28;24.95;;;;;;;;;;5119962;27;20042;-84
2021/12/11 09:05:26;;;;;;;35.95;21.65;;;;;;;;;;5138092;27;20506;-85
2021/12/11 09:08:14;;;;;;;46.45;21.83;;;;;;;;;;5120977;27;20047;-85
2021/12/11 09:10:46;;;;;;;40.40;23.05;;;;;;;;;;5137904;27;20043;-84
2021/12/11 09:13:21;;;;;;;39.97;23.33;;;;;;;;;;5120282;27;20053;-84
2021/12/11 09:15:51;;;;;;;37.10;22.80;;;;;;;;;;5120214;27;20043;-85
2021/12/11 09:18:19;;;;;;;39.83;22.33;;;;;;;;;;5137602;27;20047;-84
2021/12/11 09:20:51;;;;;;;40.47;22.95;;;;;;;;;;5120937;27;20043;-84
2021/12/11 09:23:24;;;;;;;43.03;24.02;;;;;;;;;;5120768;27;20039;-84
2021/12/11 09:25:54;;;;;;;41.03;22.17;;;;;;;;;;5138216;27;20102;-84
2021/12/11 09:28:20;;;;;;;38.90;22.73;;;;;;;;;;5121812;27;20046;-84
2021/12/11 09:30:47;;;;;;;41.33;22.77;;;;;;;;;;5121162;27;20422;-84
2021/12/11 09:33:16;;;;;;;37.60;24.42;;;;;;;;;;5119697;27;20040;-85
2021/12/11 09:35:46;;;;;;;41.28;23.15;;;;;;;;;;5136778;27;20075;-84
2021/12/11 09:38:21;;;;;;;44.33;23.50;;;;;;;;;;5119726;27;20042;-85
2021/12/11 09:40:56;;;;;;;40.45;22.40;;;;;;;;;;5119838;27;20050;-85
2021/12/11 09:43:29;;;;;;;41.33;22.13;;;;;;;;;;5119781;27;20049;-85
2021/12/11 09:45:56;;;;;;;37.08;20.45;;;;;;;;;;5136871;27;20490;-85
2021/12/11 09:48:22;;;;;;;41.30;21.83;;;;;;;;;;5119613;27;20049;-85
2021/12/11 09:50:56;;;;;;;44.28;23.88;;;;;;;;;;5119616;27;20130;-85
2021/12/11 09:53:24;;;;;;;41.67;24.50;;;;;;;;;;5137080;27;20050;-85
2021/12/11 09:55:50;;;;;;;44.17;22.15;;;;;;;;;;5119489;27;20090;-85
2021/12/11 09:58:18;;;;;;;34.63;22.92;;;;;;;;;;5137815;27;20050;-85
2021/12/11 10:00:53;;;;;;;37.63;22.10;;;;;;;;;;5121735;27;20072;-85
2021/12/11 10:03:22;;;;;;;41.97;23.98;;;;;;;;;;5121895;27;20047;-84
2021/12/11 10:05:55;;;;;;;44.33;25.40;;;;;;;;;;5121524;27;20043;-85
2021/12/11 10:08:32;;;;;;;45.73;23.37;;;;;;;;;;5136376;27;20043;-85
2021/12/11 10:11:19;;;;;;;38.38;23.85;;;0.60;99.90;;;;;;5137940;27;20047;-85
2021/12/11 10:13:47;;;;;;;37.28;22.48;;;;;;;;;;5141080;27;20042;-85
2021/12/11 10:16:13;;;;;;;35.78;21.27;;;;;;;;;;5123502;27;20050;-85
2021/12/11 10:18:40;;;;;;;37.78;21.38;;;;;;;;;;5141010;27;20068;-85
2021/12/11 10:21:10;;;;;;;36.03;21.67;;;;;;;;;;5123989;27;20043;-84
2021/12/11 10:23:37;;;;;;;39.80;22.38;;;;;;;;;;5140499;27;20039;-84
2021/12/11 10:26:09;;;;;;;41.40;22.30;;;;;;;;;;5123631;27;20031;-84
2021/12/11 10:28:36;;;;;;;37.33;22.15;;;;;;;;;;5123145;27;20051;-85
2021/12/11 10:31:05;;;;;;;38.53;21.88;;;;;;;;;;5122904;27;20035;-85
2021/12/11 10:33:34;;;;;;;38.67;21.73;;;;;;;;;;5139896;27;20096;-84
2021/12/11 10:36:03;;;;;;;37.72;22.52;;;;;;;;;;5123098;27;20482;-84
2021/12/11 10:38:30;;;;;;;40.78;22.35;;;;;;;;;;5140230;27;20078;-84
2021/12/11 10:40:57;;;;;;;33.55;19.17;;;;;;;;;;5139781;27;20103;-84
2021/12/11 10:43:46;;;;;;;29.38;18.60;;;;;;;;;;5139474;27;20072;-84
2021/12/11 10:46:13;;;;;;;31.67;20.55;;;;;;;;;;5122484;27;20083;-85
2021/12/11 10:48:40;;;;;;;34.45;20.77;;;;;;;;;;5122793;27;20046;-84
2021/12/11 10:51:15;;;;;;;30.15;19.10;;;;;;;;;;5122541;27;20047;-84
2021/12/11 10:53:42;;;;;;;39.83;21.77;;;;;;;;;;5122522;27;20052;-84
2021/12/11 10:56:09;;;;;;;30.88;19.05;;;;;;;;;;5118659;27;20138;-85
2021/12/11 10:58:41;;;;;;;33.53;19.33;;;;;;;;;;5119230;27;20454;-85
2021/12/11 11:01:10;;;;;;;34.50;18.23;;;;;;;;;;5118631;27;20039;-85
2021/12/11 11:03:38;;;;;;;32.60;19.02;;;;;;;;;;5118807;27;20055;-84
2021/12/11 11:06:04;;;;;;;34.58;18.92;;;;;;;;;;5119003;27;20487;-85
2021/12/11 11:08:31;;;;;;;31.58;20.20;;;;;;;;;;5118781;27;20043;-85
2021/12/11 11:11:01;;;;;;;35.47;19.30;;;;;;;;;;5119083;27;20043;-85
2021/12/11 11:13:27;;;;;;;25.92;17.00;;;;;;;;;;5135901;27;20103;-85
2021/12/11 11:15:54;;;;;;;31.08;15.88;;;;;;;;;;5136930;27;20036;-85
2021/12/11 11:18:21;;;;;;;32.38;18.58;;;;;;;;;;5135903;27;20054;-86
2021/12/11 11:20:53;;;;;;;31.83;18.55;;;;;;;;;;5118595;27;20036;-85
2021/12/11 11:23:19;;;;;;;31.05;18.48;;;;;;;;;;5135697;27;20104;-85
2021/12/11 11:25:47;;;;;;;30.65;16.80;;;;;;;;;;5118234;27;20062;-86
2021/12/11 11:28:14;;;;;;;33.50;18.17;;;;;;;;;;5117898;27;20471;-86
2021/12/11 11:30:44;;;;;;;31.88;16.73;;;;;;;;;;5117425;27;20072;-85
2021/12/11 11:33:12;;;;;;;33.17;17.48;;;;;;;;;;5134425;27;20146;-86
2021/12/11 11:35:42;;;;;;;29.70;16.98;;;;;;;;;;5134471;27;20082;-86
2021/12/11 11:38:13;;;;;;;33.33;18.25;;;;;;;;;;5134649;27;20483;-86
2021/12/11 11:40:42;;;;;;;25.58;16.10;;;;;;;;;;5117563;27;20035;-86
2021/12/11 11:43:08;;;;;;;26.35;14.75;;;;;;;;;;5134357;27;20047;-87
2021/12/11 11:45:35;;;;;;;30.65;17.42;;;;;;;;;;5134550;27;20407;-86
2021/12/11 11:48:01;;;;;;;35.20;17.95;;;;;;;;;;5117578;27;20046;-86
2021/12/11 11:50:30;;;;;;;31.35;17.35;;;;;;;;;;5117648;27;20054;-86
2021/12/11 11:52:56;;;;;;;25.50;15.90;;;;;;;;;;5116956;27;20054;-86
2021/12/11 11:55:25;;;;;;;29.05;16.90;;;;;;;;;;5116446;27;20066;-86
2021/12/11 11:57:52;;;;;;;25.85;16.52;;;;;;;;;;5134220;27;20059;-86
2021/12/11 12:00:21;;;;;;;33.03;16.92;;;;;;;;;;5134189;27;20042;-86
2021/12/11 12:02:47;;;;;;;26.73;15.27;;;;;;;;;;5116967;27;20043;-86
2021/12/11 12:05:14;;;;;;;25.15;15.88;;;;;;;;;;5118074;27;20074;-86
2021/12/11 12:07:40;;;;;;;27.30;16.38;;;;;;;;;;5116985;27;20078;-87
2021/12/11 12:10:35;;;;;;;26.83;17.08;;;;;;;;;;5134007;27;20053;-86
2021/12/11 12:13:07;;;;;;;25.63;16.20;;;;;;;;;;5036090;28;20152;-86
2021/12/11 12:15:34;;;;;;;30.83;16.10;;;;;;;;;;5021061;28;20414;-87
2021/12/11 12:18:00;;;;;;;29.30;17.77;;;;;;;;;;5036512;28;20067;-86
2021/12/11 12:20:27;;;;;;;25.10;16.65;;;;;;;;;;5019695;28;20037;-86
2021/12/11 12:22:54;;;;;;;28.83;15.88;;;;;;;;;;5022426;28;20379;-86
2021/12/11 12:25:20;;;;;;;24.40;16.33;;;;;;;;;;5021442;28;20055;-86
2021/12/11 12:27:49;;;;;;;23.63;16.08;;;;;;;;;;5038280;28;20049;-86
2021/12/11 12:30:21;;;;;;;28.80;16.70;;;;;;;;;;5020340;28;20110;-87
2021/12/11 12:32:48;;;;;;;33.95;16.65;;;;;;;;;;5020297;28;20107;-86
2021/12/11 12:35:16;;;;;;;27.60;17.15;;;;;;;;;;5019719;28;20508;-87
2021/12/11 12:37:43;;;;;;;26.83;16.20;;;;;;;;;;5036517;28;20533;-86
2021/12/11 12:40:12;;;;;;;25.63;15.10;;;;;;;;;;5035528;28;20076;-86
2021/12/11 12:42:51;;;;;;;34.20;17.63;;;;;;;;;;5018347;28;20146;-86
2021/12/11 12:45:46;;;;;;;29.13;16.98;;;;;;;;;;5022523;28;20041;-87
2021/12/11 12:48:23;;;;;;;32.55;18.55;;;;;;;;;;4952786;28;20066;-87
2021/12/11 12:50:53;;;;;;;23.50;15.77;;;;;;;;;;5051213;28;20049;-87
2021/12/11 12:53:20;;;;;;;37.42;18.20;;;;;;;;;;5034621;28;20065;-87
2021/12/11 12:56:08;;;;;;;31.10;18.77;;;;;;;;;;5051022;28;20135;-87
2021/12/11 12:58:37;;;;;;;30.88;17.75;;;;;;;;;;5051174;28;20529;-87
2021/12/11 13:01:09;;;;;;;31.58;18.48;;;;;;;;;;5051004;28;20076;-87
2021/12/11 13:03:36;;;;;;;38.83;17.98;;;;;;;;;;5034459;28;20045;-87
2021/12/11 13:06:05;;;;;;;34.22;18.13;;;;;;;;;;5034955;28;20041;-88
2021/12/11 13:08:38;;;;;;;32.78;16.90;;;;;;;;;;5034416;28;20128;-87
2021/12/11 13:11:07;;;;;;;33.13;18.17;;;;;;;;;;5034976;28;20058;-87
2021/12/11 13:13:33;;;;;;;27.90;17.30;;;;;;;;;;5034484;28;20564;-87
2021/12/11 13:16:02;;;;;;;30.13;16.60;;;;;;;;;;5036511;28;20071;-87
2021/12/11 13:18:29;;;;;;;32.38;20.38;;;;;;;;;;5035274;28;20053;-87
2021/12/11 13:21:21;;;;;;;31.27;18.02;;;;;;;;;;5035125;28;20132;-88
2021/12/11 13:23:48;;;;;;;27.10;17.58;;;;;;;;;;5051025;28;20138;-87
2021/12/11 13:26:16;;;;;;;37.95;20.60;;;;;;;;;;5115681;28;20039;-87
2021/12/11 13:28:47;;;;;;;33.10;17.67;;;;;;;;;;5115715;28;20043;-87
2021/12/11 13:31:20;;;;;;;32.83;16.92;;;;;;;;;;5115682;28;20079;-87
2021/12/11 13:33:46;;;;;;;24.83;15.45;;;;;;;;;;5116689;28;20043;-88
2021/12/11 13:36:13;;;;;;;37.28;18.75;;;;;;;;;;5132923;28;20032;-87
2021/12/11 13:38:41;;;;;;;32.22;18.00;;;;;;;;;;5115502;28;20081;-87
2021/12/11 13:41:10;;;;;;;29.75;16.88;;;;;;;;;;5132906;28;20035;-87
2021/12/11 13:43:36;;;;;;;34.05;18.05;;;;;;;;;;5132885;28;20043;-87
2021/12/11 13:46:03;;;;;;;32.22;19.35;;;;;;;;;;5119701;27;20395;-87
2021/12/11 13:48:29;;;;;;;28.77;18.33;;;;;;;;;;5119461;27;20039;-87
2021/12/11 13:50:57;;;;;;;23.95;15.07;;;;;;;;;;5119567;27;20129;-87
2021/12/11 13:53:23;;;;;;;32.30;16.00;;;;;;;;;;5119418;27;20054;-87
2021/12/11 13:55:50;;;;;;;31.95;17.98;;;;;;;;;;5136569;27;20178;-87
2021/12/11 13:58:16;;;;;;;28.88;17.75;;;;;;;;;;5119307;27;20051;-87
2021/12/11 14:00:51;;;;;;;31.63;17.73;;;;;;;;;;5136295;27;20039;-87
2021/12/11 14:03:18;;;;;;;31.08;17.23;;;;;;;;;;5136310;27;20047;-87
2021/12/11 14:05:46;;;;;;;32.78;15.10;;;;;;;;;;5137331;27;20046;-87
2021/12/11 14:08:14;;;;;;;31.58;17.95;;;;;;;;;;5119122;27;20043;-87
2021/12/11 14:10:41;;;;;;;37.75;17.90;;;;;;;;;;5136446;27;20058;-87
2021/12/11 14:13:09;;;;;;;32.92;16.77;;;;;;;;;;5119517;27;20078;-87
2021/12/11 14:15:37;;;;;;;32.53;16.63;;;;;;;;;;5119243;27;20448;-87
2021/12/11 14:18:04;;;;;;;27.02;16.05;;;;;;;;;;5118827;27;20487;-87
2021/12/11 14:20:32;;;;;;;36.85;17.20;;;;;;;;;;5119439;27;20035;-87
2021/12/11 14:22:59;;;;;;;30.67;17.15;;;;;;;;;;5120322;27;20419;-87
2021/12/11 14:25:26;;;;;;;25.73;17.17;;;;;;;;;;5137208;27;20050;-86
2021/12/11 14:27:53;;;;;;;28.27;17.73;;;;;;;;;;5120166;27;20047;-86
2021/12/11 14:30:20;;;;;;;36.83;18.80;;;;;;;;;;5137260;27;20039;-86
2021/12/11 14:32:52;;;;;;;22.73;15.43;;;;;;;;;;5119927;27;20117;-86
2021/12/11 14:35:19;;;;;;;25.38;17.25;;;;;;;;;;5120944;27;20035;-86
2021/12/11 14:37:46;;;;;;;26.35;16.85;;;;;;;;;;5137091;27;20077;-86
2021/12/11 14:40:15;;;;;;;25.38;16.98;;;;;;;;;;5136478;27;20035;-86
2021/12/11 14:42:42;;;;;;;31.35;17.83;;;;;;;;;;5119643;27;20039;-86
2021/12/11 14:45:10;;;;;;;27.48;17.13;;;;;;;;;;5136254;27;20518;-87